Time;durP1;ratioP1;P1;durP2;ratioP2;P2;SDS_P1;SDS_P2;PMS_P1;PMS_P2;Temp;Humidity;BMP_temperature;BMP_pressure;BME280_temperature;BME280_humidity;BME280_pressure;Samples;Min_cycle;Max_cycle;Signal;HPM_P1;HPM_P2
2023/12/19 00:00:47;;;;;;;4.97;1.42;;;12.80;99.90;;;;;;4965263;28;20054;-80
2023/12/19 00:03:14;;;;;;;3.90;1.40;;;12.80;99.90;;;;;;4963319;28;20057;-80
2023/12/19 00:05:41;;;;;;;4.53;1.73;;;12.80;99.90;;;;;;4966362;28;20519;-80
2023/12/19 00:08:08;;;;;;;4.00;1.40;;;12.80;1.00;;;;;;4964765;28;20218;-80
2023/12/19 00:10:35;;;;;;;2.63;1.25;;;12.80;1.00;;;;;;4965017;28;20153;-80
2023/12/19 00:13:02;;;;;;;3.13;1.30;;;12.80;1.00;;;;;;4965728;28;20090;-80
2023/12/19 00:15:29;;;;;;;4.70;1.70;;;12.80;1.00;;;;;;4965664;28;20047;-79
2023/12/19 00:17:56;;;;;;;4.18;1.27;;;12.80;1.00;;;;;;4947031;28;20062;-79
2023/12/19 00:20:23;;;;;;;4.60;1.20;;;12.80;1.00;;;;;;4964172;28;20512;-80
2023/12/19 00:22:50;;;;;;;2.95;1.10;;;12.80;1.00;;;;;;4965559;28;20063;-80
2023/12/19 00:25:17;;;;;;;3.92;1.10;;;12.80;1.00;;;;;;4945182;28;20057;-80
2023/12/19 00:27:43;;;;;;;2.88;1.17;;;12.80;1.00;;;;;;4962099;28;20079;-80
2023/12/19 00:30:11;;;;;;;3.60;1.27;;;12.80;1.00;;;;;;4963494;28;20047;-80
2023/12/19 00:32:38;;;;;;;3.75;1.30;;;12.80;1.00;;;;;;4963159;28;20065;-80
2023/12/19 00:35:05;;;;;;;3.75;1.40;;;12.80;13.60;;;;;;4965015;28;20239;-80
2023/12/19 00:37:32;;;;;;;3.75;1.60;;;12.80;30.90;;;;;;4947859;28;20070;-80
2023/12/19 00:39:59;;;;;;;2.00;1.00;;;12.80;53.30;;;;;;4965687;28;20429;-80
2023/12/19 00:42:26;;;;;;;2.80;1.20;;;12.80;19.80;;;;;;4965496;28;20142;-80
2023/12/19 00:44:53;;;;;;;3.40;1.20;;;12.80;21.70;;;;;;4948272;28;20218;-80
2023/12/19 00:47:20;;;;;;;5.40;1.55;;;12.80;38.30;;;;;;4962534;28;20145;-80
2023/12/19 00:49:47;;;;;;;4.70;1.38;;;12.80;70.30;;;;;;4965057;28;20051;-80
2023/12/19 00:52:14;;;;;;;2.45;1.27;;;12.80;99.90;;;;;;4964524;28;20086;-80
2023/12/19 00:54:40;;;;;;;2.55;1.33;;;12.80;99.90;;;;;;4964545;28;20125;-80
2023/12/19 00:57:08;;;;;;;5.55;1.95;;;12.80;97.00;;;;;;4965104;28;20487;-80
2023/12/19 00:59:34;;;;;;;4.38;1.48;;;12.80;90.30;;;;;;4948210;28;20555;-80
2023/12/19 01:02:01;;;;;;;3.10;1.48;;;12.80;88.20;;;;;;4961075;28;20054;-80
2023/12/19 01:04:28;;;;;;;4.82;2.38;;;12.80;99.90;;;;;;4960238;28;20050;-80
2023/12/19 01:06:55;;;;;;;4.80;1.70;;;12.80;99.90;;;;;;4962732;28;20306;-80
2023/12/19 01:09:22;;;;;;;7.15;1.60;;;12.80;99.90;;;;;;4965118;28;20078;-81
2023/12/19 01:11:49;;;;;;;6.95;1.90;;;12.80;99.90;;;;;;4963533;28;20051;-80
2023/12/19 01:14:15;;;;;;;3.95;1.60;;;12.80;99.90;;;;;;4963842;28;20059;-80
2023/12/19 01:16:42;;;;;;;4.03;1.85;;;12.80;99.90;;;;;;4962253;28;20065;-79
2023/12/19 01:19:09;;;;;;;3.05;1.40;;;12.80;99.90;;;;;;4964821;28;20063;-80
2023/12/19 01:21:37;;;;;;;3.08;1.58;;;12.80;99.90;;;;;;4964191;28;20133;-80
2023/12/19 01:24:04;;;;;;;5.32;1.48;;;12.80;99.90;;;;;;4965162;28;20051;-81
2023/12/19 01:26:34;;;;;;;4.10;1.40;;;12.80;99.90;;;;;;4963555;28;20050;-80
2023/12/19 01:29:02;;;;;;;3.63;1.10;;;12.80;99.90;;;;;;4944400;28;20117;-81
2023/12/19 01:31:30;;;;;;;3.50;1.75;;;12.80;99.50;;;;;;4944013;28;20062;-80
2023/12/19 01:33:57;;;;;;;5.82;2.10;;;12.80;99.90;;;;;;4964308;28;20142;-80
2023/12/19 01:36:25;;;;;;;3.20;1.30;;;12.80;99.90;;;;;;4964032;28;20054;-80
2023/12/19 01:38:53;;;;;;;5.55;1.90;;;12.80;99.90;;;;;;4964578;28;20065;-80
2023/12/19 01:41:22;;;;;;;5.13;2.10;;;12.80;99.90;;;;;;4964960;28;20058;-80
2023/12/19 01:43:49;;;;;;;5.45;1.88;;;12.80;99.90;;;;;;4965519;28;20054;-80
2023/12/19 01:46:17;;;;;;;3.88;1.60;;;12.80;99.90;;;;;;4964775;28;20055;-80
2023/12/19 01:48:44;;;;;;;3.10;1.77;;;12.70;99.90;;;;;;4962513;28;20152;-80
2023/12/19 01:51:11;;;;;;;4.32;1.90;;;12.80;99.90;;;;;;4932369;28;20046;-80
2023/12/19 01:53:40;;;;;;;4.93;2.05;;;12.80;99.90;;;;;;4963460;28;20087;-80
2023/12/19 01:56:07;;;;;;;4.43;1.90;;;12.80;99.90;;;;;;4947628;28;20073;-80
2023/12/19 01:58:34;;;;;;;4.90;1.67;;;12.80;99.90;;;;;;4946640;28;20122;-80
2023/12/19 02:01:01;;;;;;;2.90;1.10;;;12.80;99.90;;;;;;4963551;28;20357;-80
2023/12/19 02:03:28;;;;;;;4.40;1.30;;;12.80;99.90;;;;;;4961409;28;20051;-80
2023/12/19 02:05:55;;;;;;;5.68;1.55;;;12.70;99.90;;;;;;4947316;28;20113;-80
2023/12/19 02:08:22;;;;;;;2.30;1.13;;;12.80;1.00;;;;;;4946709;28;20054;-80
2023/12/19 02:10:49;;;;;;;3.08;1.10;;;12.80;1.00;;;;;;4947236;28;20070;-81
2023/12/19 02:13:16;;;;;;;3.15;1.50;;;12.80;1.00;;;;;;4964408;28;20517;-80
2023/12/19 02:15:43;;;;;;;3.55;1.38;;;12.80;1.00;;;;;;4931518;28;20047;-81
2023/12/19 02:18:15;;;;;;;6.47;1.90;;;12.80;1.00;;;;;;4945784;28;20515;-81
2023/12/19 02:20:42;;;;;;;3.88;1.85;;;12.80;1.00;;;;;;4963539;28;20133;-80
2023/12/19 02:23:11;;;;;;;5.82;1.60;;;12.80;1.00;;;;;;4963131;28;20150;-80
2023/12/19 02:25:37;;;;;;;4.80;1.65;;;12.80;1.00;;;;;;4962923;28;20070;-80
2023/12/19 02:28:05;;;;;;;3.55;1.70;;;12.80;1.00;;;;;;4964467;28;20067;-80
2023/12/19 02:30:34;;;;;;;4.70;1.70;;;12.80;33.60;;;;;;4931515;28;20141;-80
2023/12/19 02:33:02;;;;;;;3.65;1.48;;;12.80;99.90;;;;;;4957025;28;20138;-80
2023/12/19 02:35:29;;;;;;;4.45;1.83;;;12.80;99.90;;;;;;4944209;29;20062;-80
2023/12/19 02:37:56;;;;;;;3.08;1.30;;;12.80;99.90;;;;;;4948954;28;20055;-80
2023/12/19 02:40:23;;;;;;;4.07;1.33;;;12.70;99.90;;;;;;4950372;28;20065;-80
2023/12/19 02:42:50;;;;;;;2.50;1.13;;;12.70;99.90;;;;;;4970562;28;20047;-80
2023/12/19 02:45:17;;;;;;;4.97;1.48;;;12.60;99.90;;;;;;4969355;28;20141;-79
2023/12/19 02:47:43;;;;;;;2.58;0.90;;;12.60;99.90;;;;;;4966243;28;20164;-80
2023/12/19 02:50:11;;;;;;;3.45;1.23;;;12.50;99.90;;;;;;4970535;28;20501;-79
2023/12/19 02:52:38;;;;;;;2.72;1.05;;;12.40;99.90;;;;;;4971166;28;20062;-80
2023/12/19 02:55:05;;;;;;;3.65;1.30;;;12.40;99.90;;;;;;4970668;28;20054;-80
2023/12/19 02:57:32;;;;;;;3.22;1.42;;;12.40;1.00;;;;;;4953856;28;20054;-79
2023/12/19 02:59:59;;;;;;;3.20;1.45;;;12.40;99.90;;;;;;4969588;28;20043;-79
2023/12/19 03:02:26;;;;;;;2.88;1.27;;;12.30;99.90;;;;;;4969702;28;20117;-79
2023/12/19 03:04:54;;;;;;;2.20;1.08;;;12.30;99.90;;;;;;4970002;28;20047;-79
2023/12/19 03:07:21;;;;;;;2.60;1.33;;;12.30;1.00;;;;;;4970030;28;20750;-79
2023/12/19 03:09:48;;;;;;;2.65;1.10;;;12.20;1.00;;;;;;4970681;28;20050;-80
2023/12/19 03:12:15;;;;;;;2.90;1.85;;;12.30;59.10;;;;;;4970652;28;20055;-79
2023/12/19 03:14:41;;;;;;;2.45;1.20;;;12.30;99.90;;;;;;4953293;28;20046;-79
2023/12/19 03:17:08;;;;;;;2.17;1.33;;;12.20;99.90;;;;;;4968470;28;20058;-79
2023/12/19 03:19:36;;;;;;;1.88;1.15;;;12.20;99.90;;;;;;4964008;28;20097;-79
2023/12/19 03:22:03;;;;;;;2.42;1.38;;;12.20;99.90;;;;;;4951786;28;20461;-79
2023/12/19 03:24:30;;;;;;;1.73;0.93;;;12.20;99.90;;;;;;4964841;28;20122;-79
2023/12/19 03:26:57;;;;;;;1.27;0.77;;;12.30;99.90;;;;;;4970098;28;20142;-79
2023/12/19 03:29:24;;;;;;;2.42;1.15;;;12.20;1.00;;;;;;4970780;28;20121;-78
2023/12/19 03:31:51;;;;;;;2.25;0.93;;;12.20;1.00;;;;;;4967898;28;20135;-80
2023/12/19 03:34:18;;;;;;;1.25;0.90;;;12.20;1.00;;;;;;4952260;28;20054;-79
2023/12/19 03:36:45;;;;;;;1.58;0.80;;;12.20;1.00;;;;;;4952728;28;20051;-80
2023/12/19 03:39:12;;;;;;;1.20;0.80;;;12.20;1.00;;;;;;4970075;28;20042;-79
2023/12/19 03:41:39;;;;;;;1.63;0.98;;;12.20;1.00;;;;;;4970029;28;20078;-79
2023/12/19 03:44:06;;;;;;;2.92;1.08;;;12.20;1.00;;;;;;4969033;28;20054;-79
2023/12/19 03:46:34;;;;;;;2.17;1.08;;;12.20;1.00;;;;;;4968767;28;20074;-79
2023/12/19 03:49:01;;;;;;;1.42;0.90;;;12.20;1.00;;;;;;4969320;28;20086;-79
2023/12/19 03:51:28;;;;;;;2.15;1.02;;;12.20;1.00;;;;;;4952585;28;20101;-78
2023/12/19 03:53:55;;;;;;;1.88;0.88;;;12.20;1.00;;;;;;4935757;28;20624;-79
2023/12/19 03:56:22;;;;;;;0.98;0.60;;;12.20;1.00;;;;;;4969290;28;20481;-79
2023/12/19 03:58:49;;;;;;;0.77;0.57;;;12.20;1.00;;;;;;4936804;28;20145;-79
2023/12/19 04:01:18;;;;;;;2.50;0.60;;;12.10;1.00;;;;;;4968736;28;20760;-79
2023/12/19 04:03:45;;;;;;;0.88;0.40;;;12.20;1.00;;;;;;4952077;28;20062;-79
2023/12/19 04:06:12;;;;;;;0.50;0.40;;;12.20;1.00;;;;;;4952615;28;20106;-79
2023/12/19 04:08:39;;;;;;;0.30;0.30;;;12.20;1.00;;;;;;4968966;28;20053;-79
2023/12/19 04:11:06;;;;;;;0.30;0.30;;;12.20;1.00;;;;;;4936745;28;20046;-78
2023/12/19 04:13:33;;;;;;;0.50;0.40;;;12.20;1.00;;;;;;4969222;28;20078;-79
2023/12/19 04:16:00;;;;;;;0.47;0.47;;;12.20;1.00;;;;;;4967853;28;20097;-78
2023/12/19 04:18:26;;;;;;;2.50;0.70;;;12.20;1.00;;;;;;4968206;28;20054;-79
2023/12/19 04:20:53;;;;;;;1.23;0.55;;;12.20;1.00;;;;;;4969294;28;20055;-80
2023/12/19 04:23:20;;;;;;;0.90;0.52;;;12.20;1.00;;;;;;4967629;28;20061;-79
2023/12/19 04:25:47;;;;;;;1.60;0.70;;;12.20;1.00;;;;;;4969599;28;20078;-79
2023/12/19 04:28:14;;;;;;;1.13;0.60;;;12.30;1.00;;;;;;4967596;28;20047;-80
2023/12/19 04:30:41;;;;;;;1.33;0.80;;;12.30;99.90;;;;;;4967431;28;20804;-79
2023/12/19 04:33:08;;;;;;;2.10;0.90;;;12.30;99.90;;;;;;4967674;28;20671;-80
2023/12/19 04:35:35;;;;;;;1.15;0.70;;;12.30;99.90;;;;;;4967984;28;20216;-79
2023/12/19 04:38:03;;;;;;;0.60;0.60;;;12.30;99.90;;;;;;4968660;28;20603;-80
2023/12/19 04:40:30;;;;;;;1.33;0.65;;;12.40;99.90;;;;;;4967295;28;20059;-80
2023/12/19 04:42:57;;;;;;;0.73;0.63;;;12.40;99.90;;;;;;4968270;28;20102;-80
2023/12/19 04:45:24;;;;;;;1.85;0.60;;;12.40;99.90;;;;;;4951303;28;20442;-81
2023/12/19 04:47:51;;;;;;;0.88;0.70;;;12.40;99.90;;;;;;4967616;28;20542;-80
2023/12/19 04:50:18;;;;;;;0.60;0.60;;;12.40;99.90;;;;;;4968166;28;20461;-80
2023/12/19 04:52:44;;;;;;;1.20;0.80;;;12.40;1.00;;;;;;4967238;28;20089;-79
2023/12/19 04:55:12;;;;;;;0.55;0.45;;;12.40;99.90;;;;;;4968877;28;20137;-79
2023/12/19 04:57:39;;;;;;;0.45;0.45;;;12.40;99.90;;;;;;4967110;28;20086;-80
2023/12/19 05:00:06;;;;;;;0.40;0.40;;;12.40;99.90;;;;;;4935354;28;20050;-80
2023/12/19 05:02:33;;;;;;;1.45;0.55;;;12.40;99.90;;;;;;4966007;28;20454;-79
2023/12/19 05:05:01;;;;;;;0.40;0.40;;;12.40;99.90;;;;;;4967487;28;20062;-80
2023/12/19 05:07:28;;;;;;;0.55;0.52;;;12.40;99.90;;;;;;4950859;28;20058;-79
2023/12/19 05:09:54;;;;;;;1.02;0.43;;;12.40;99.90;;;;;;4968808;28;20484;-80
2023/12/19 05:12:23;;;;;;;0.55;0.45;;;12.50;99.90;;;;;;4935126;28;20082;-80
2023/12/19 05:14:50;;;;;;;0.50;0.50;;;12.50;99.90;;;;;;4966657;28;20608;-79
2023/12/19 05:17:16;;;;;;;0.55;0.47;;;12.50;99.90;;;;;;4967355;28;20057;-79
2023/12/19 05:19:43;;;;;;;0.47;0.40;;;12.50;99.90;;;;;;4966186;28;20046;-79
2023/12/19 05:22:19;;;;;;;0.30;0.30;;;12.50;99.90;;;;;;4978453;28;20450;-79
2023/12/19 05:24:46;;;;;;;0.95;0.40;;;12.50;99.90;;;;;;4974877;28;20047;-79
2023/12/19 05:27:12;;;;;;;1.08;0.50;;;12.50;99.90;;;;;;4966682;28;20050;-79
2023/12/19 05:29:39;;;;;;;1.17;0.80;;;12.50;99.90;;;;;;4968359;28;20129;-79
2023/12/19 05:32:06;;;;;;;0.65;0.45;;;12.50;99.90;;;;;;4966786;28;20051;-79
2023/12/19 05:34:33;;;;;;;0.30;0.30;;;12.50;99.90;;;;;;4966230;28;20113;-78
2023/12/19 05:37:00;;;;;;;0.88;0.60;;;12.50;99.90;;;;;;4967799;28;20055;-77
2023/12/19 05:39:27;;;;;;;0.30;0.30;;;12.50;99.90;;;;;;4967771;28;20051;-78
2023/12/19 05:41:56;;;;;;;0.45;0.45;;;12.50;99.90;;;;;;4967581;28;20054;-77
2023/12/19 05:44:23;;;;;;;0.30;0.30;;;12.40;1.00;;;;;;4967822;28;20054;-78
2023/12/19 05:46:50;;;;;;;1.02;0.50;;;12.40;1.00;;;;;;4966391;28;20494;-78
2023/12/19 05:49:20;;;;;;;0.90;0.60;;;12.40;1.00;;;;;;4963512;28;20050;-79
2023/12/19 05:51:47;;;;;;;0.43;0.40;;;12.40;1.00;;;;;;4965120;28;20050;-79
2023/12/19 05:54:14;;;;;;;0.50;0.50;;;12.30;1.00;;;;;;4966129;28;20209;-78
2023/12/19 05:56:41;;;;;;;0.93;0.50;;;12.30;1.00;;;;;;4963452;28;20047;-78
2023/12/19 05:59:08;;;;;;;0.50;0.50;;;12.30;1.00;;;;;;4963757;28;20158;-78
2023/12/19 06:01:41;;;;;;;1.17;0.60;;;12.30;1.00;;;;;;4963045;28;20047;-79
2023/12/19 06:04:08;;;;;;;1.50;0.85;;;12.30;1.00;;;;;;4957130;28;20148;-79
2023/12/19 06:06:40;;;;;;;1.25;0.80;;;12.30;1.00;;;;;;4959944;28;20846;-79
2023/12/19 06:09:10;;;;;;;1.27;0.60;;;12.30;1.00;;;;;;4962829;28;20062;-79
2023/12/19 06:11:37;;;;;;;0.60;0.60;;;12.30;1.00;;;;;;4965088;28;20051;-78
2023/12/19 06:14:04;;;;;;;0.77;0.73;;;12.30;1.00;;;;;;4964539;28;20493;-78
2023/12/19 06:16:32;;;;;;;1.00;0.63;;;12.30;1.00;;;;;;4964910;28;20406;-78
2023/12/19 06:18:59;;;;;;;1.40;0.70;;;12.30;1.00;;;;;;4951022;28;20763;-78
2023/12/19 06:21:27;;;;;;;1.30;0.70;;;12.40;1.00;;;;;;4951040;28;20058;-78
2023/12/19 06:23:54;;;;;;;0.40;0.40;;;12.30;1.00;;;;;;4966869;28;20050;-78
2023/12/19 06:26:24;;;;;;;0.57;0.57;;;12.30;11.80;;;;;;4965349;28;20113;-78
2023/12/19 06:28:52;;;;;;;0.68;0.57;;;12.30;27.30;;;;;;4964586;28;20544;-79
2023/12/19 06:31:22;;;;;;;0.32;0.30;;;12.30;38.20;;;;;;4967742;28;20062;-78
2023/12/19 06:33:49;;;;;;;1.02;0.57;;;12.30;54.80;;;;;;4966179;28;20307;-79
2023/12/19 06:36:29;;;;;;;0.70;0.50;;;12.30;88.40;;;;;;4967483;28;20042;-79
2023/12/19 06:38:57;;;;;;;0.40;0.40;;;12.30;90.20;;;;;;4966393;28;20501;-79
2023/12/19 06:41:25;;;;;;;0.30;0.30;;;12.30;99.90;;;;;;4965437;28;20054;-79
2023/12/19 06:43:52;;;;;;;0.52;0.40;;;12.30;99.90;;;;;;4964370;28;20054;-79
2023/12/19 06:46:18;;;;;;;0.43;0.20;;;12.30;99.90;;;;;;4966261;28;20109;-79
2023/12/19 06:48:45;;;;;;;0.32;0.32;;;12.20;99.90;;;;;;4967535;28;20051;-78
2023/12/19 06:51:45;;;;;;;0.35;0.30;;;12.30;99.90;;;;;;4966050;28;20528;-79
2023/12/19 06:54:12;;;;;;;0.38;0.32;;;12.20;99.90;;;;;;4953601;28;20114;-78
2023/12/19 06:56:39;;;;;;;0.30;0.22;;;12.20;99.90;;;;;;4966431;28;20149;-79
2023/12/19 06:59:06;;;;;;;0.20;0.20;;;12.20;99.90;;;;;;4968075;28;20054;-79
2023/12/19 07:01:33;;;;;;;0.20;0.20;;;12.30;99.90;;;;;;4965328;28;20138;-79
2023/12/19 07:04:00;;;;;;;0.20;0.20;;;12.30;99.90;;;;;;4930626;28;20047;-78
2023/12/19 07:06:27;;;;;;;0.28;0.28;;;12.30;99.90;;;;;;4963322;28;20575;-78
2023/12/19 07:08:55;;;;;;;0.30;0.30;;;12.30;99.90;;;;;;4966938;28;20074;-78
2023/12/19 07:11:23;;;;;;;0.17;0.17;;;12.30;99.90;;;;;;4963710;28;20047;-78
2023/12/19 07:13:50;;;;;;;0.40;0.20;;;12.30;99.90;;;;;;4962832;28;20153;-78
2023/12/19 07:16:18;;;;;;;0.20;0.20;;;12.30;99.90;;;;;;4964443;28;21023;-78
2023/12/19 07:18:45;;;;;;;0.20;0.20;;;12.30;99.90;;;;;;4961870;28;20054;-79
2023/12/19 07:21:24;;;;;;;0.20;0.20;;;12.30;99.90;;;;;;4948275;28;20058;-79
2023/12/19 07:23:52;;;;;;;0.15;0.15;;;12.30;99.90;;;;;;4964813;28;20058;-78
2023/12/19 07:26:29;;;;;;;0.30;0.30;;;12.30;99.90;;;;;;4966748;28;20047;-77
2023/12/19 07:28:59;;;;;;;0.15;0.15;;;12.30;99.90;;;;;;4961993;28;20117;-77
2023/12/19 07:31:27;;;;;;;0.20;0.20;;;12.30;96.50;;;;;;4962014;28;20505;-77
2023/12/19 07:34:02;;;;;;;0.10;0.10;;;12.40;92.40;;;;;;4962422;28;20571;-78
2023/12/19 07:36:29;;;;;;;0.30;0.30;;;12.30;92.50;;;;;;4964398;28;20448;-77
2023/12/19 07:38:56;;;;;;;0.28;0.28;;;12.40;93.00;;;;;;4961297;28;20068;-77
2023/12/19 07:41:26;;;;;;;0.20;0.20;;;12.40;92.60;;;;;;4933506;28;20114;-77
2023/12/19 07:43:54;;;;;;;0.20;0.20;;;12.40;91.50;;;;;;4964874;28;20055;-77
2023/12/19 07:46:21;;;;;;;0.10;0.10;;;12.40;92.30;;;;;;4967125;28;20393;-78
2023/12/19 07:48:48;;;;;;;0.10;0.10;;;12.40;96.30;;;;;;4962791;28;20520;-77
2023/12/19 07:51:24;;;;;;;0.20;0.20;;;12.40;94.00;;;;;;4966171;28;20078;-77
2023/12/19 07:53:51;;;;;;;0.20;0.20;;;12.40;94.20;;;;;;4964938;28;20080;-76
2023/12/19 07:56:18;;;;;;;0.10;0.10;;;12.40;92.10;;;;;;4967328;28;20050;-76
2023/12/19 07:58:46;;;;;;;0.60;0.20;;;12.40;91.10;;;;;;4955327;28;20054;-78
2023/12/19 08:01:13;;;;;;;0.63;0.30;;;12.40;82.60;;;;;;4949308;28;20050;-78
2023/12/19 08:03:41;;;;;;;0.30;0.30;;;12.40;85.20;;;;;;4961749;28;20109;-77
2023/12/19 08:06:08;;;;;;;0.25;0.25;;;12.40;91.80;;;;;;4963638;28;20043;-78
2023/12/19 08:08:35;;;;;;;0.20;0.20;;;12.40;99.90;;;;;;4932311;28;20675;-78
2023/12/19 08:11:02;;;;;;;0.40;0.30;;;12.40;99.90;;;;;;4931220;28;20485;-77
2023/12/19 08:13:29;;;;;;;0.35;0.20;;;12.40;99.90;;;;;;4955855;28;20200;-78
2023/12/19 08:15:56;;;;;;;0.30;0.30;;;12.40;99.90;;;;;;4964554;28;20055;-77
2023/12/19 08:18:23;;;;;;;0.20;0.20;;;12.40;99.90;;;;;;4963719;28;20058;-77
2023/12/19 08:20:50;;;;;;;0.20;0.20;;;12.40;99.90;;;;;;4966935;28;20058;-76
2023/12/19 08:23:17;;;;;;;0.43;0.40;;;12.30;99.90;;;;;;4959903;28;20055;-77
2023/12/19 08:25:45;;;;;;;0.30;0.30;;;12.30;99.90;;;;;;4965896;28;20050;-77
2023/12/19 08:28:12;;;;;;;0.20;0.20;;;12.40;99.90;;;;;;4958190;28;20055;-77
2023/12/19 08:30:41;;;;;;;0.17;0.17;;;12.40;99.90;;;;;;4964913;28;20050;-77
2023/12/19 08:33:09;;;;;;;0.30;0.30;;;12.40;99.90;;;;;;4959669;28;20469;-76
2023/12/19 08:35:36;;;;;;;0.20;0.20;;;12.40;99.90;;;;;;4964080;28;20058;-77
2023/12/19 08:38:03;;;;;;;0.30;0.30;;;12.30;99.90;;;;;;4961008;28;20059;-77
2023/12/19 08:40:30;;;;;;;0.20;0.20;;;12.30;99.90;;;;;;4964564;28;20046;-77
2023/12/19 08:42:57;;;;;;;0.40;0.40;;;12.40;99.90;;;;;;4962195;28;20061;-77
2023/12/19 08:45:26;;;;;;;0.35;0.30;;;12.30;99.90;;;;;;4959070;28;20085;-77
2023/12/19 08:47:54;;;;;;;0.80;0.40;;;12.30;99.90;;;;;;4944668;28;20076;-76
2023/12/19 08:50:22;;;;;;;0.50;0.30;;;12.30;99.90;;;;;;4962512;28;20050;-76
2023/12/19 08:52:49;;;;;;;0.63;0.40;;;12.40;99.90;;;;;;4963075;28;20058;-77
2023/12/19 08:55:16;;;;;;;0.38;0.30;;;12.40;99.90;;;;;;4943756;28;20050;-77
2023/12/19 08:57:44;;;;;;;0.30;0.30;;;12.40;99.90;;;;;;4966095;28;20141;-76
2023/12/19 09:00:13;;;;;;;0.95;0.40;;;12.40;99.90;;;;;;4964575;28;20520;-77
2023/12/19 09:02:42;;;;;;;0.25;0.25;;;12.40;99.90;;;;;;4965161;28;20126;-76
2023/12/19 09:05:13;;;;;;;0.20;0.20;;;12.40;99.90;;;;;;4964140;28;20057;-76
2023/12/19 09:07:41;;;;;;;0.30;0.30;;;12.40;99.90;;;;;;4964501;28;20086;-78
2023/12/19 09:10:08;;;;;;;0.30;0.30;;;12.40;99.90;;;;;;4965461;28;20101;-76
2023/12/19 09:12:36;;;;;;;0.30;0.30;;;12.40;99.90;;;;;;4965538;28;20134;-77
2023/12/19 09:15:06;;;;;;;0.57;0.40;;;12.40;99.90;;;;;;4960564;28;20047;-76
2023/12/19 09:17:33;;;;;;;1.00;0.73;;;12.40;99.90;;;;;;4945810;28;20102;-76
2023/12/19 09:20:04;;;;;;;0.60;0.50;;;12.40;99.90;;;;;;4963446;28;20060;-78
2023/12/19 09:22:31;;;;;;;0.70;0.60;;;12.40;99.90;;;;;;4962183;28;20050;-78
2023/12/19 09:24:58;;;;;;;1.10;0.65;;;12.40;99.90;;;;;;4958881;28;20051;-78
2023/12/19 09:27:25;;;;;;;0.68;0.50;;;12.50;99.90;;;;;;4957548;28;20117;-77
2023/12/19 09:29:53;;;;;;;0.50;0.35;;;12.50;99.90;;;;;;4957845;28;20157;-77
2023/12/19 09:32:21;;;;;;;0.40;0.40;;;12.50;99.90;;;;;;4957890;28;20061;-77
2023/12/19 09:34:49;;;;;;;0.57;0.45;;;12.50;99.90;;;;;;4956163;28;20138;-78
2023/12/19 09:37:17;;;;;;;0.30;0.30;;;12.50;99.90;;;;;;4953236;28;20043;-77
2023/12/19 09:39:47;;;;;;;0.52;0.40;;;12.50;99.90;;;;;;4958860;28;20050;-78
2023/12/19 09:42:18;;;;;;;0.40;0.40;;;12.50;99.90;;;;;;4959146;28;20070;-78
2023/12/19 09:44:47;;;;;;;0.30;0.30;;;12.50;99.90;;;;;;4956004;28;20116;-78
2023/12/19 09:47:23;;;;;;;0.20;0.20;;;12.60;99.90;;;;;;4954435;28;20047;-78
2023/12/19 09:49:52;;;;;;;0.32;0.32;;;12.60;99.90;;;;;;4952140;28;20050;-78
2023/12/19 09:52:22;;;;;;;0.40;0.30;;;12.60;99.90;;;;;;4955625;28;20062;-78
2023/12/19 09:54:52;;;;;;;0.30;0.30;;;12.60;99.90;;;;;;4957039;28;20054;-78
2023/12/19 09:57:20;;;;;;;0.17;0.17;;;12.60;99.90;;;;;;4950858;28;20118;-78
2023/12/19 09:59:47;;;;;;;0.77;0.45;;;12.60;99.90;;;;;;4961970;28;20214;-78
2023/12/19 10:02:24;;;;;;;0.20;0.20;;;12.60;99.90;;;;;;4940550;28;20701;-79
2023/12/19 10:04:52;;;;;;;0.38;0.38;;;12.60;99.90;;;;;;4951808;28;20699;-78
2023/12/19 10:07:20;;;;;;;0.30;0.30;;;12.60;99.90;;;;;;4956236;28;20062;-78
2023/12/19 10:09:54;;;;;;;0.22;0.20;;;12.60;99.90;;;;;;4952852;28;20612;-78
2023/12/19 10:12:25;;;;;;;0.30;0.22;;;12.70;99.90;;;;;;4924312;28;20054;-78
2023/12/19 10:14:52;;;;;;;0.30;0.30;;;12.70;99.90;;;;;;4956541;28;20217;-78
2023/12/19 10:17:20;;;;;;;0.30;0.30;;;12.70;99.90;;;;;;4964108;28;20106;-79
2023/12/19 10:19:47;;;;;;;0.28;0.28;;;12.70;99.90;;;;;;4950794;28;20059;-77
2023/12/19 10:22:16;;;;;;;1.27;0.20;;;12.70;99.90;;;;;;4956218;28;20057;-78
2023/12/19 10:24:43;;;;;;;0.30;0.30;;;12.70;99.90;;;;;;4941930;28;20059;-77
2023/12/19 10:27:10;;;;;;;1.95;0.40;;;12.70;99.90;;;;;;4943099;28;20078;-84
2023/12/19 10:29:42;;;;;;;0.20;0.20;;;12.70;99.90;;;;;;4963226;28;20058;-84
2023/12/19 10:32:16;;;;;;;0.22;0.22;;;12.70;99.90;;;;;;4961560;28;20051;-83
2023/12/19 10:34:44;;;;;;;0.17;0.17;;;12.70;99.90;;;;;;4959837;28;20053;-82
2023/12/19 10:37:12;;;;;;;0.20;0.20;;;12.70;99.90;;;;;;4960616;28;20551;-83
2023/12/19 10:39:40;;;;;;;0.20;0.20;;;12.80;99.90;;;;;;4962273;28;20137;-85
2023/12/19 10:42:09;;;;;;;0.65;0.20;;;12.80;99.90;;;;;;4962399;28;20047;-82
2023/12/19 10:44:38;;;;;;;0.30;0.30;;;12.80;99.90;;;;;;4957878;28;20054;-83
2023/12/19 10:47:08;;;;;;;0.30;0.30;;;12.80;99.90;;;;;;4957667;28;20050;-83
2023/12/19 10:49:36;;;;;;;0.38;0.20;;;12.80;99.90;;;;;;4942179;28;20054;-81
2023/12/19 10:52:10;;;;;;;0.30;0.30;;;12.70;99.90;;;;;;4958849;28;20684;-82
2023/12/19 10:54:39;;;;;;;0.70;0.52;;;12.70;99.90;;;;;;4959235;28;20053;-81
2023/12/19 10:57:16;;;;;;;0.65;0.55;;;12.40;1.00;;;;;;4955991;28;20105;-80
2023/12/19 11:00:10;;;;;;;0.35;0.22;;;12.20;14.00;;;;;;4962491;28;20532;-80
2023/12/19 11:02:45;;;;;;;0.32;0.30;;;11.70;99.90;;;;;;4940274;28;20129;-79
2023/12/19 11:05:41;;;;;;;0.68;0.40;;;11.40;99.90;;;;;;4954168;28;20065;-79
2023/12/19 11:08:18;;;;;;;0.30;0.30;;;11.20;1.00;;;;;;4940501;28;20137;-80
2023/12/19 11:11:20;;;;;;;0.40;0.40;;;11.10;1.00;;;;;;4965111;28;20054;-79
2023/12/19 11:13:47;;;;;;;0.55;0.40;;;11.00;1.00;;;;;;4944031;28;20046;-79
2023/12/19 11:16:14;;;;;;;1.48;0.90;;;10.80;99.90;;;;;;4941867;28;20598;-79
2023/12/19 11:19:20;;;;;;;0.80;0.52;;;10.70;99.90;;;;;;4960069;28;20119;-79
2023/12/19 11:22:08;;;;;;;0.88;0.60;;;10.70;1.00;;;;;;4979482;28;20047;-80
2023/12/19 11:24:42;;;;;;;0.60;0.47;;;10.60;1.00;;;;;;4961585;28;20050;-83
2023/12/19 11:27:13;;;;;;;0.30;0.30;;;10.70;1.00;;;;;;4962937;28;20057;-76
2023/12/19 11:29:44;;;;;;;0.55;0.40;;;10.70;1.00;;;;;;4959335;28;20499;-76
2023/12/19 11:32:27;;;;;;;0.57;0.30;;;10.70;1.00;;;;;;4958751;28;20073;-76
2023/12/19 11:35:09;;;;;;;0.50;0.30;;;10.70;1.00;;;;;;4961057;28;20126;-77
2023/12/19 11:37:36;;;;;;;0.73;0.70;;;10.70;99.90;;;;;;4945103;28;20189;-76
2023/12/19 11:40:05;;;;;;;1.05;0.70;;;10.70;1.00;;;;;;4954414;28;20126;-76
2023/12/19 11:42:38;;;;;;;0.82;0.60;;;10.70;1.00;;;;;;4955661;28;20181;-83
2023/12/19 11:45:19;;;;;;;0.40;0.40;;;10.70;1.00;;;;;;4968168;28;20068;-84
2023/12/19 11:47:49;;;;;;;1.08;0.68;;;10.80;1.00;;;;;;4953088;28;20062;-84
2023/12/19 11:50:39;;;;;;;0.70;0.70;;;10.80;1.00;;;;;;4942885;28;20071;-84
2023/12/19 11:53:07;;;;;;;0.82;0.50;;;10.80;1.00;;;;;;4962706;28;20068;-82
2023/12/19 11:55:34;;;;;;;1.00;0.75;;;10.90;1.00;;;;;;4976460;28;20074;-83
2023/12/19 11:58:11;;;;;;;0.75;0.70;;;10.90;1.00;;;;;;4968829;28;20406;-83
2023/12/19 12:00:38;;;;;;;0.80;0.68;;;10.90;1.00;;;;;;4968865;28;20138;-83
2023/12/19 12:03:11;;;;;;;0.95;0.70;;;10.90;1.00;;;;;;4966117;28;20047;-81
2023/12/19 12:05:38;;;;;;;0.68;0.50;;;10.90;1.00;;;;;;4952753;28;20177;-82
2023/12/19 12:08:06;;;;;;;0.93;0.80;;;10.90;1.00;;;;;;4970773;28;20382;-83
2023/12/19 12:10:32;;;;;;;0.63;0.60;;;10.90;1.00;;;;;;4952867;28;20133;-83
2023/12/19 12:13:04;;;;;;;0.70;0.70;;;10.90;1.00;;;;;;4969549;28;20054;-82
2023/12/19 12:15:31;;;;;;;1.17;0.90;;;10.90;99.90;;;;;;4982088;28;20490;-82
2023/12/19 12:18:03;;;;;;;0.90;0.70;;;10.80;1.00;;;;;;4983944;28;20554;-83
2023/12/19 12:20:32;;;;;;;1.65;1.05;;;10.80;1.00;;;;;;4986050;28;20081;-82
2023/12/19 12:23:00;;;;;;;1.10;0.70;;;10.80;99.90;;;;;;4978543;28;20134;-82
2023/12/19 12:25:27;;;;;;;2.85;0.80;;;10.80;1.00;;;;;;4966975;28;20165;-81
2023/12/19 12:28:11;;;;;;;1.20;0.80;;;10.80;99.90;;;;;;4967377;28;20057;-83
2023/12/19 12:30:38;;;;;;;0.47;0.47;;;10.80;99.90;;;;;;4964608;28;20069;-83
2023/12/19 12:33:06;;;;;;;1.10;0.57;;;10.70;99.90;;;;;;4965179;28;20046;-83
2023/12/19 12:35:38;;;;;;;0.93;0.40;;;10.60;99.90;;;;;;4966540;28;20058;-82
2023/12/19 12:38:06;;;;;;;0.82;0.60;;;10.60;99.90;;;;;;4986491;28;20108;-81
2023/12/19 12:40:36;;;;;;;1.55;0.80;;;10.60;99.90;;;;;;4952350;28;20109;-82
2023/12/19 12:43:36;;;;;;;0.50;0.38;;;10.60;99.90;;;;;;4967198;28;20047;-83
2023/12/19 12:46:07;;;;;;;1.83;0.70;;;10.60;1.00;;;;;;4966507;28;20081;-82
2023/12/19 12:48:37;;;;;;;0.47;0.40;;;10.60;99.90;;;;;;4950109;28;20466;-82
2023/12/19 12:51:05;;;;;;;0.38;0.35;;;10.70;1.00;;;;;;4984722;28;20054;-83
2023/12/19 12:53:33;;;;;;;0.55;0.50;;;10.70;1.00;;;;;;4957106;28;20086;-83
2023/12/19 12:56:10;;;;;;;0.82;0.60;;;10.70;1.00;;;;;;4933728;28;20058;-82
2023/12/19 12:58:37;;;;;;;0.45;0.40;;;10.70;1.00;;;;;;4965503;28;20090;-85